sensor_id;sensor_type;location;lat;lon;timestamp;P1;durP1;ratioP1;P2;durP2;ratioP2
20399;SDS011;10359;53.596;22.520;2022-08-24T00:01:52;9.93;;;5.40;;
20399;SDS011;10359;53.596;22.520;2022-08-24T00:08:43;14.20;;;5.90;;
20399;SDS011;10359;53.596;22.520;2022-08-24T01:00:19;12.60;;;6.60;;
20399;SDS011;10359;53.596;22.520;2022-08-24T01:19:21;19.47;;;7.03;;
20399;SDS011;10359;53.596;22.520;2022-08-24T01:51:13;14.33;;;6.20;;
20399;SDS011;10359;53.596;22.520;2022-08-24T02:02:07;13.90;;;6.47;;
20399;SDS011;10359;53.596;22.520;2022-08-24T02:09:02;12.93;;;6.37;;
20399;SDS011;10359;53.596;22.520;2022-08-24T02:11:52;12.50;;;6.00;;
20399;SDS011;10359;53.596;22.520;2022-08-24T02:14:44;16.40;;;6.40;;
20399;SDS011;10359;53.596;22.520;2022-08-24T02:17:33;12.47;;;5.87;;
20399;SDS011;10359;53.596;22.520;2022-08-24T02:20:25;18.93;;;6.50;;
20399;SDS011;10359;53.596;22.520;2022-08-24T02:23:15;16.77;;;6.20;;
20399;SDS011;10359;53.596;22.520;2022-08-24T02:26:07;15.70;;;6.30;;
20399;SDS011;10359;53.596;22.520;2022-08-24T02:28:58;17.93;;;6.70;;
20399;SDS011;10359;53.596;22.520;2022-08-24T02:31:50;15.63;;;6.47;;
20399;SDS011;10359;53.596;22.520;2022-08-24T02:34:39;13.00;;;6.13;;
20399;SDS011;10359;53.596;22.520;2022-08-24T02:37:30;15.23;;;6.87;;
20399;SDS011;10359;53.596;22.520;2022-08-24T02:40:25;16.57;;;5.43;;
20399;SDS011;10359;53.596;22.520;2022-08-24T02:43:16;20.87;;;6.50;;
20399;SDS011;10359;53.596;22.520;2022-08-24T02:46:05;11.53;;;5.83;;
20399;SDS011;10359;53.596;22.520;2022-08-24T02:48:59;10.93;;;5.77;;
20399;SDS011;10359;53.596;22.520;2022-08-24T02:51:57;15.37;;;6.10;;
20399;SDS011;10359;53.596;22.520;2022-08-24T02:54:47;15.20;;;6.23;;
20399;SDS011;10359;53.596;22.520;2022-08-24T02:57:36;19.57;;;6.27;;
20399;SDS011;10359;53.596;22.520;2022-08-24T03:00:27;15.07;;;6.70;;
20399;SDS011;10359;53.596;22.520;2022-08-24T03:03:16;14.83;;;6.60;;
20399;SDS011;10359;53.596;22.520;2022-08-24T03:06:06;15.93;;;6.40;;
20399;SDS011;10359;53.596;22.520;2022-08-24T03:08:56;11.73;;;6.37;;
20399;SDS011;10359;53.596;22.520;2022-08-24T03:11:46;15.77;;;6.37;;
20399;SDS011;10359;53.596;22.520;2022-08-24T03:14:36;17.17;;;6.50;;
20399;SDS011;10359;53.596;22.520;2022-08-24T03:17:27;14.73;;;5.87;;
20399;SDS011;10359;53.596;22.520;2022-08-24T03:20:20;17.97;;;7.50;;
20399;SDS011;10359;53.596;22.520;2022-08-24T03:23:10;11.63;;;6.23;;
20399;SDS011;10359;53.596;22.520;2022-08-24T03:26:00;12.03;;;6.47;;
20399;SDS011;10359;53.596;22.520;2022-08-24T03:28:51;17.23;;;7.10;;
20399;SDS011;10359;53.596;22.520;2022-08-24T03:31:41;16.33;;;7.03;;
20399;SDS011;10359;53.596;22.520;2022-08-24T03:34:31;17.47;;;6.50;;
20399;SDS011;10359;53.596;22.520;2022-08-24T03:37:21;13.07;;;6.80;;
20399;SDS011;10359;53.596;22.520;2022-08-24T03:40:11;15.67;;;6.97;;
20399;SDS011;10359;53.596;22.520;2022-08-24T03:43:10;19.63;;;7.30;;
20399;SDS011;10359;53.596;22.520;2022-08-24T03:46:20;19.80;;;6.97;;
20399;SDS011;10359;53.596;22.520;2022-08-24T03:49:11;14.50;;;6.30;;
20399;SDS011;10359;53.596;22.520;2022-08-24T03:52:02;18.70;;;6.60;;
20399;SDS011;10359;53.596;22.520;2022-08-24T03:54:52;13.93;;;6.33;;
20399;SDS011;10359;53.596;22.520;2022-08-24T03:57:43;18.10;;;6.30;;
20399;SDS011;10359;53.596;22.520;2022-08-24T04:00:32;14.80;;;6.40;;
20399;SDS011;10359;53.596;22.520;2022-08-24T04:03:22;17.03;;;6.50;;
20399;SDS011;10359;53.596;22.520;2022-08-24T04:06:14;18.80;;;7.17;;
20399;SDS011;10359;53.596;22.520;2022-08-24T04:09:06;23.13;;;9.30;;
20399;SDS011;10359;53.596;22.520;2022-08-24T04:11:56;20.03;;;9.63;;
20399;SDS011;10359;53.596;22.520;2022-08-24T04:14:45;19.20;;;8.57;;
20399;SDS011;10359;53.596;22.520;2022-08-24T04:17:35;23.53;;;10.00;;
20399;SDS011;10359;53.596;22.520;2022-08-24T04:20:24;26.73;;;11.27;;
20399;SDS011;10359;53.596;22.520;2022-08-24T04:23:14;24.50;;;10.00;;
20399;SDS011;10359;53.596;22.520;2022-08-24T04:26:06;25.37;;;8.57;;
20399;SDS011;10359;53.596;22.520;2022-08-24T04:28:56;16.10;;;8.27;;
20399;SDS011;10359;53.596;22.520;2022-08-24T04:31:46;14.53;;;6.43;;
20399;SDS011;10359;53.596;22.520;2022-08-24T04:34:36;17.87;;;7.10;;
20399;SDS011;10359;53.596;22.520;2022-08-24T04:37:26;12.77;;;6.10;;
20399;SDS011;10359;53.596;22.520;2022-08-24T04:40:15;17.07;;;6.73;;
20399;SDS011;10359;53.596;22.520;2022-08-24T04:43:10;11.13;;;5.57;;
20399;SDS011;10359;53.596;22.520;2022-08-24T04:46:06;16.47;;;6.50;;
20399;SDS011;10359;53.596;22.520;2022-08-24T04:48:56;15.47;;;6.27;;
20399;SDS011;10359;53.596;22.520;2022-08-24T04:51:45;14.70;;;6.60;;
20399;SDS011;10359;53.596;22.520;2022-08-24T04:54:35;12.67;;;6.40;;
20399;SDS011;10359;53.596;22.520;2022-08-24T04:57:25;9.63;;;4.93;;
20399;SDS011;10359;53.596;22.520;2022-08-24T05:00:17;15.13;;;5.87;;
20399;SDS011;10359;53.596;22.520;2022-08-24T05:03:07;13.53;;;6.43;;
20399;SDS011;10359;53.596;22.520;2022-08-24T05:05:56;13.37;;;6.30;;
20399;SDS011;10359;53.596;22.520;2022-08-24T05:08:46;19.07;;;6.37;;
20399;SDS011;10359;53.596;22.520;2022-08-24T05:11:36;13.37;;;5.53;;
20399;SDS011;10359;53.596;22.520;2022-08-24T05:14:35;9.83;;;5.50;;
20399;SDS011;10359;53.596;22.520;2022-08-24T05:17:26;14.80;;;5.90;;
20399;SDS011;10359;53.596;22.520;2022-08-24T05:20:16;17.07;;;6.10;;
20399;SDS011;10359;53.596;22.520;2022-08-24T05:23:06;19.17;;;6.83;;
20399;SDS011;10359;53.596;22.520;2022-08-24T05:26:02;21.53;;;7.50;;
20399;SDS011;10359;53.596;22.520;2022-08-24T05:28:53;28.90;;;8.60;;
20399;SDS011;10359;53.596;22.520;2022-08-24T05:31:45;25.10;;;7.97;;
20399;SDS011;10359;53.596;22.520;2022-08-24T05:34:36;26.40;;;8.00;;
20399;SDS011;10359;53.596;22.520;2022-08-24T05:37:26;31.40;;;7.63;;
20399;SDS011;10359;53.596;22.520;2022-08-24T05:40:16;32.90;;;7.77;;
20399;SDS011;10359;53.596;22.520;2022-08-24T05:43:07;22.93;;;7.60;;
20399;SDS011;10359;53.596;22.520;2022-08-24T05:45:57;29.67;;;7.67;;
20399;SDS011;10359;53.596;22.520;2022-08-24T05:48:46;30.40;;;7.63;;
20399;SDS011;10359;53.596;22.520;2022-08-24T05:51:40;23.33;;;7.60;;
20399;SDS011;10359;53.596;22.520;2022-08-24T05:54:30;31.67;;;7.43;;
20399;SDS011;10359;53.596;22.520;2022-08-24T05:57:20;28.20;;;7.90;;
20399;SDS011;10359;53.596;22.520;2022-08-24T06:00:11;25.90;;;6.93;;
20399;SDS011;10359;53.596;22.520;2022-08-24T06:03:01;28.50;;;7.90;;
20399;SDS011;10359;53.596;22.520;2022-08-24T06:05:51;31.70;;;8.13;;
20399;SDS011;10359;53.596;22.520;2022-08-24T06:08:44;34.33;;;8.57;;
20399;SDS011;10359;53.596;22.520;2022-08-24T06:11:35;28.93;;;7.97;;
20399;SDS011;10359;53.596;22.520;2022-08-24T06:14:26;30.17;;;7.90;;
20399;SDS011;10359;53.596;22.520;2022-08-24T06:17:16;23.77;;;7.30;;
20399;SDS011;10359;53.596;22.520;2022-08-24T06:20:06;24.83;;;7.83;;
20399;SDS011;10359;53.596;22.520;2022-08-24T06:22:56;22.90;;;8.03;;
20399;SDS011;10359;53.596;22.520;2022-08-24T06:25:47;26.93;;;7.20;;
20399;SDS011;10359;53.596;22.520;2022-08-24T06:29:01;29.63;;;8.10;;
20399;SDS011;10359;53.596;22.520;2022-08-24T06:31:50;30.07;;;8.33;;
20399;SDS011;10359;53.596;22.520;2022-08-24T06:34:42;29.27;;;7.53;;
20399;SDS011;10359;53.596;22.520;2022-08-24T06:37:31;29.33;;;7.77;;
20399;SDS011;10359;53.596;22.520;2022-08-24T06:40:20;35.07;;;8.93;;
20399;SDS011;10359;53.596;22.520;2022-08-24T06:43:13;30.70;;;7.87;;
20399;SDS011;10359;53.596;22.520;2022-08-24T06:46:03;30.67;;;7.50;;
20399;SDS011;10359;53.596;22.520;2022-08-24T06:48:53;26.67;;;7.13;;
20399;SDS011;10359;53.596;22.520;2022-08-24T06:51:43;35.97;;;8.07;;
20399;SDS011;10359;53.596;22.520;2022-08-24T06:54:36;36.30;;;7.87;;
20399;SDS011;10359;53.596;22.520;2022-08-24T06:57:26;27.97;;;7.57;;
20399;SDS011;10359;53.596;22.520;2022-08-24T07:00:19;28.50;;;7.97;;
20399;SDS011;10359;53.596;22.520;2022-08-24T07:03:11;29.80;;;8.13;;
20399;SDS011;10359;53.596;22.520;2022-08-24T07:06:01;25.90;;;7.33;;
20399;SDS011;10359;53.596;22.520;2022-08-24T07:08:52;28.10;;;7.83;;
20399;SDS011;10359;53.596;22.520;2022-08-24T07:11:42;26.60;;;6.87;;
20399;SDS011;10359;53.596;22.520;2022-08-24T07:14:32;32.50;;;9.13;;
20399;SDS011;10359;53.596;22.520;2022-08-24T07:17:23;32.83;;;7.77;;
20399;SDS011;10359;53.596;22.520;2022-08-24T07:20:13;20.70;;;6.77;;
20399;SDS011;10359;53.596;22.520;2022-08-24T07:23:03;34.17;;;8.17;;
20399;SDS011;10359;53.596;22.520;2022-08-24T07:25:53;28.20;;;6.90;;
20399;SDS011;10359;53.596;22.520;2022-08-24T07:28:43;28.10;;;7.73;;
20399;SDS011;10359;53.596;22.520;2022-08-24T07:31:33;34.30;;;7.67;;
20399;SDS011;10359;53.596;22.520;2022-08-24T07:34:26;29.17;;;7.17;;
20399;SDS011;10359;53.596;22.520;2022-08-24T07:37:16;35.53;;;7.77;;
20399;SDS011;10359;53.596;22.520;2022-08-24T07:40:07;29.77;;;7.07;;
20399;SDS011;10359;53.596;22.520;2022-08-24T07:42:57;31.90;;;7.70;;
20399;SDS011;10359;53.596;22.520;2022-08-24T07:45:47;37.27;;;7.70;;
20399;SDS011;10359;53.596;22.520;2022-08-24T07:48:38;25.90;;;7.03;;
20399;SDS011;10359;53.596;22.520;2022-08-24T07:51:29;30.07;;;8.07;;
20399;SDS011;10359;53.596;22.520;2022-08-24T07:54:24;34.90;;;7.67;;
20399;SDS011;10359;53.596;22.520;2022-08-24T07:57:15;31.73;;;8.30;;
20399;SDS011;10359;53.596;22.520;2022-08-24T08:00:05;34.72;;;8.10;;
20399;SDS011;10359;53.596;22.520;2022-08-24T08:02:56;33.13;;;7.13;;
20399;SDS011;10359;53.596;22.520;2022-08-24T08:05:49;27.77;;;7.82;;
20399;SDS011;10359;53.596;22.520;2022-08-24T08:09:10;26.65;;;7.50;;
20399;SDS011;10359;53.596;22.520;2022-08-24T08:12:16;30.98;;;7.20;;
20399;SDS011;10359;53.596;22.520;2022-08-24T08:15:27;26.55;;;7.63;;
20399;SDS011;10359;53.596;22.520;2022-08-24T08:18:34;33.88;;;8.30;;
20399;SDS011;10359;53.596;22.520;2022-08-24T08:21:54;29.88;;;7.57;;
20399;SDS011;10359;53.596;22.520;2022-08-24T08:25:14;30.00;;;7.90;;
20399;SDS011;10359;53.596;22.520;2022-08-24T08:28:19;27.25;;;8.05;;
20399;SDS011;10359;53.596;22.520;2022-08-24T08:31:26;25.48;;;7.57;;
20399;SDS011;10359;53.596;22.520;2022-08-24T08:34:35;30.60;;;7.95;;
20399;SDS011;10359;53.596;22.520;2022-08-24T08:37:47;29.75;;;8.05;;
20399;SDS011;10359;53.596;22.520;2022-08-24T08:41:02;31.73;;;7.78;;
20399;SDS011;10359;53.596;22.520;2022-08-24T08:44:32;35.30;;;7.93;;
20399;SDS011;10359;53.596;22.520;2022-08-24T08:47:57;28.10;;;7.22;;
20399;SDS011;10359;53.596;22.520;2022-08-24T08:55:18;32.95;;;7.60;;
20399;SDS011;10359;53.596;22.520;2022-08-24T08:58:54;30.35;;;6.63;;
20399;SDS011;10359;53.596;22.520;2022-08-24T09:02:05;28.50;;;6.93;;
20399;SDS011;10359;53.596;22.520;2022-08-24T09:09:13;29.23;;;7.38;;
20399;SDS011;10359;53.596;22.520;2022-08-24T09:12:23;31.88;;;7.30;;
20399;SDS011;10359;53.596;22.520;2022-08-24T09:18:47;28.45;;;6.93;;
20399;SDS011;10359;53.596;22.520;2022-08-24T09:21:50;24.95;;;6.55;;
20399;SDS011;10359;53.596;22.520;2022-08-24T09:28:33;26.55;;;6.20;;
20399;SDS011;10359;53.596;22.520;2022-08-24T09:31:59;26.25;;;5.95;;
20399;SDS011;10359;53.596;22.520;2022-08-24T09:35:17;26.63;;;6.40;;
20399;SDS011;10359;53.596;22.520;2022-08-24T09:38:16;35.42;;;7.55;;
20399;SDS011;10359;53.596;22.520;2022-08-24T09:41:19;34.95;;;7.13;;
20399;SDS011;10359;53.596;22.520;2022-08-24T09:48:03;38.17;;;7.28;;
20399;SDS011;10359;53.596;22.520;2022-08-24T09:54:48;23.73;;;6.00;;
20399;SDS011;10359;53.596;22.520;2022-08-24T09:58:02;29.35;;;6.88;;
20399;SDS011;10359;53.596;22.520;2022-08-24T10:01:02;28.35;;;7.45;;
20399;SDS011;10359;53.596;22.520;2022-08-24T10:04:03;26.48;;;6.32;;
20399;SDS011;10359;53.596;22.520;2022-08-24T10:07:02;28.75;;;6.80;;
20399;SDS011;10359;53.596;22.520;2022-08-24T10:10:02;21.48;;;6.47;;
20399;SDS011;10359;53.596;22.520;2022-08-24T10:13:09;27.77;;;6.22;;
20399;SDS011;10359;53.596;22.520;2022-08-24T10:16:17;23.60;;;6.28;;
20399;SDS011;10359;53.596;22.520;2022-08-24T10:19:17;21.90;;;5.95;;
20399;SDS011;10359;53.596;22.520;2022-08-24T10:22:42;24.42;;;6.28;;
20399;SDS011;10359;53.596;22.520;2022-08-24T10:25:48;19.20;;;5.63;;
20399;SDS011;10359;53.596;22.520;2022-08-24T10:28:47;23.50;;;6.13;;
20399;SDS011;10359;53.596;22.520;2022-08-24T10:32:05;22.02;;;5.95;;
20399;SDS011;10359;53.596;22.520;2022-08-24T10:35:12;20.40;;;5.75;;
20399;SDS011;10359;53.596;22.520;2022-08-24T10:38:20;20.48;;;5.72;;
20399;SDS011;10359;53.596;22.520;2022-08-24T10:41:50;28.33;;;5.78;;
20399;SDS011;10359;53.596;22.520;2022-08-24T10:49:15;23.92;;;5.50;;
20399;SDS011;10359;53.596;22.520;2022-08-24T10:52:40;19.27;;;5.68;;
20399;SDS011;10359;53.596;22.520;2022-08-24T10:55:39;23.73;;;5.93;;
20399;SDS011;10359;53.596;22.520;2022-08-24T10:58:37;18.85;;;6.25;;
20399;SDS011;10359;53.596;22.520;2022-08-24T11:01:32;22.60;;;6.40;;
20399;SDS011;10359;53.596;22.520;2022-08-24T11:04:25;25.38;;;6.55;;
20399;SDS011;10359;53.596;22.520;2022-08-24T11:07:18;27.10;;;6.88;;
20399;SDS011;10359;53.596;22.520;2022-08-24T11:10:10;21.52;;;6.15;;
20399;SDS011;10359;53.596;22.520;2022-08-24T11:13:18;29.63;;;6.57;;
20399;SDS011;10359;53.596;22.520;2022-08-24T11:16:10;24.58;;;6.75;;
20399;SDS011;10359;53.596;22.520;2022-08-24T11:19:12;28.05;;;6.85;;
20399;SDS011;10359;53.596;22.520;2022-08-24T11:22:23;32.30;;;6.53;;
20399;SDS011;10359;53.596;22.520;2022-08-24T11:25:19;32.88;;;7.30;;
20399;SDS011;10359;53.596;22.520;2022-08-24T11:28:17;27.70;;;6.88;;
20399;SDS011;10359;53.596;22.520;2022-08-24T11:31:11;26.88;;;6.72;;
20399;SDS011;10359;53.596;22.520;2022-08-24T11:34:08;36.47;;;7.95;;
20399;SDS011;10359;53.596;22.520;2022-08-24T11:37:01;44.40;;;7.93;;
20399;SDS011;10359;53.596;22.520;2022-08-24T11:39:51;29.50;;;6.65;;
20399;SDS011;10359;53.596;22.520;2022-08-24T11:42:47;38.85;;;7.43;;
20399;SDS011;10359;53.596;22.520;2022-08-24T11:45:57;37.53;;;8.32;;
20399;SDS011;10359;53.596;22.520;2022-08-24T11:48:58;36.78;;;8.25;;
20399;SDS011;10359;53.596;22.520;2022-08-24T11:51:56;34.90;;;7.20;;
20399;SDS011;10359;53.596;22.520;2022-08-24T11:54:51;33.92;;;7.57;;
20399;SDS011;10359;53.596;22.520;2022-08-24T11:57:50;40.67;;;7.32;;
20399;SDS011;10359;53.596;22.520;2022-08-24T12:00:46;27.85;;;6.50;;
20399;SDS011;10359;53.596;22.520;2022-08-24T12:03:44;45.22;;;8.75;;
20399;SDS011;10359;53.596;22.520;2022-08-24T12:06:54;37.20;;;8.02;;
20399;SDS011;10359;53.596;22.520;2022-08-24T12:09:51;38.35;;;7.93;;
20399;SDS011;10359;53.596;22.520;2022-08-24T12:12:50;34.15;;;7.97;;
20399;SDS011;10359;53.596;22.520;2022-08-24T12:15:47;33.25;;;7.38;;
20399;SDS011;10359;53.596;22.520;2022-08-24T12:18:47;40.28;;;8.07;;
20399;SDS011;10359;53.596;22.520;2022-08-24T12:21:44;37.25;;;8.02;;
20399;SDS011;10359;53.596;22.520;2022-08-24T12:24:37;35.10;;;7.53;;
20399;SDS011;10359;53.596;22.520;2022-08-24T12:27:31;36.70;;;8.27;;
20399;SDS011;10359;53.596;22.520;2022-08-24T12:30:24;47.60;;;9.35;;
20399;SDS011;10359;53.596;22.520;2022-08-24T12:33:14;33.38;;;7.57;;
20399;SDS011;10359;53.596;22.520;2022-08-24T12:36:09;32.00;;;8.18;;
20399;SDS011;10359;53.596;22.520;2022-08-24T12:39:09;43.58;;;8.38;;
20399;SDS011;10359;53.596;22.520;2022-08-24T12:42:07;49.65;;;9.25;;
20399;SDS011;10359;53.596;22.520;2022-08-24T12:45:05;45.47;;;9.13;;
20399;SDS011;10359;53.596;22.520;2022-08-24T12:47:59;38.88;;;8.15;;
20399;SDS011;10359;53.596;22.520;2022-08-24T12:51:00;47.03;;;9.45;;
20399;SDS011;10359;53.596;22.520;2022-08-24T12:54:06;50.15;;;8.63;;
20399;SDS011;10359;53.596;22.520;2022-08-24T12:57:23;41.05;;;8.50;;
20399;SDS011;10359;53.596;22.520;2022-08-24T13:00:23;44.75;;;8.68;;
20399;SDS011;10359;53.596;22.520;2022-08-24T13:03:25;52.85;;;8.75;;
20399;SDS011;10359;53.596;22.520;2022-08-24T13:06:24;47.00;;;9.13;;
20399;SDS011;10359;53.596;22.520;2022-08-24T13:09:27;50.90;;;8.93;;
20399;SDS011;10359;53.596;22.520;2022-08-24T13:15:56;35.15;;;8.45;;
20399;SDS011;10359;53.596;22.520;2022-08-24T13:25:45;39.25;;;8.48;;
20399;SDS011;10359;53.596;22.520;2022-08-24T13:28:43;45.15;;;9.25;;
20399;SDS011;10359;53.596;22.520;2022-08-24T13:31:42;44.88;;;8.95;;
20399;SDS011;10359;53.596;22.520;2022-08-24T13:34:40;44.05;;;8.75;;
20399;SDS011;10359;53.596;22.520;2022-08-24T13:37:32;39.53;;;8.02;;
20399;SDS011;10359;53.596;22.520;2022-08-24T13:40:22;40.88;;;8.63;;
20399;SDS011;10359;53.596;22.520;2022-08-24T13:43:16;48.20;;;8.18;;
20399;SDS011;10359;53.596;22.520;2022-08-24T13:46:13;34.42;;;7.93;;
20399;SDS011;10359;53.596;22.520;2022-08-24T13:49:15;43.95;;;9.63;;
20399;SDS011;10359;53.596;22.520;2022-08-24T13:52:16;38.75;;;8.48;;
20399;SDS011;10359;53.596;22.520;2022-08-24T13:55:14;35.92;;;7.88;;
20399;SDS011;10359;53.596;22.520;2022-08-24T13:58:18;49.33;;;8.75;;
20399;SDS011;10359;53.596;22.520;2022-08-24T14:01:24;42.17;;;9.13;;
20399;SDS011;10359;53.596;22.520;2022-08-24T14:04:29;40.92;;;9.07;;
20399;SDS011;10359;53.596;22.520;2022-08-24T14:07:29;37.33;;;8.27;;
20399;SDS011;10359;53.596;22.520;2022-08-24T14:10:30;48.60;;;9.25;;
20399;SDS011;10359;53.596;22.520;2022-08-24T14:13:30;36.10;;;8.00;;
20399;SDS011;10359;53.596;22.520;2022-08-24T14:16:37;41.63;;;9.00;;
20399;SDS011;10359;53.596;22.520;2022-08-24T14:19:54;44.15;;;8.20;;
20399;SDS011;10359;53.596;22.520;2022-08-24T14:22:56;39.33;;;8.70;;
20399;SDS011;10359;53.596;22.520;2022-08-24T14:25:50;45.05;;;8.10;;
20399;SDS011;10359;53.596;22.520;2022-08-24T14:35:24;36.63;;;7.90;;
20399;SDS011;10359;53.596;22.520;2022-08-24T14:38:32;43.30;;;8.15;;
20399;SDS011;10359;53.596;22.520;2022-08-24T14:41:42;43.70;;;8.90;;
20399;SDS011;10359;53.596;22.520;2022-08-24T14:47:57;41.50;;;8.50;;
20399;SDS011;10359;53.596;22.520;2022-08-24T14:50:53;40.40;;;8.55;;
20399;SDS011;10359;53.596;22.520;2022-08-24T14:53:50;37.72;;;8.40;;
20399;SDS011;10359;53.596;22.520;2022-08-24T14:56:51;35.55;;;8.13;;
20399;SDS011;10359;53.596;22.520;2022-08-24T14:59:54;36.47;;;8.13;;
20399;SDS011;10359;53.596;22.520;2022-08-24T15:06:18;38.65;;;7.93;;
20399;SDS011;10359;53.596;22.520;2022-08-24T15:09:17;37.75;;;7.90;;
20399;SDS011;10359;53.596;22.520;2022-08-24T15:12:11;32.38;;;7.90;;
20399;SDS011;10359;53.596;22.520;2022-08-24T15:15:11;33.35;;;8.55;;
20399;SDS011;10359;53.596;22.520;2022-08-24T15:18:12;38.55;;;8.75;;
20399;SDS011;10359;53.596;22.520;2022-08-24T15:21:16;30.48;;;7.90;;
20399;SDS011;10359;53.596;22.520;2022-08-24T15:24:15;34.85;;;7.70;;
20399;SDS011;10359;53.596;22.520;2022-08-24T15:27:16;37.78;;;7.60;;
20399;SDS011;10359;53.596;22.520;2022-08-24T15:30:23;35.28;;;7.68;;
20399;SDS011;10359;53.596;22.520;2022-08-24T15:33:16;33.78;;;7.40;;
20399;SDS011;10359;53.596;22.520;2022-08-24T15:36:08;39.65;;;8.52;;
20399;SDS011;10359;53.596;22.520;2022-08-24T15:38:59;29.98;;;7.47;;
20399;SDS011;10359;53.596;22.520;2022-08-24T15:41:49;28.48;;;7.60;;
20399;SDS011;10359;53.596;22.520;2022-08-24T15:44:40;34.92;;;7.88;;
20399;SDS011;10359;53.596;22.520;2022-08-24T15:47:34;25.08;;;7.20;;
20399;SDS011;10359;53.596;22.520;2022-08-24T15:50:27;30.63;;;7.32;;
20399;SDS011;10359;53.596;22.520;2022-08-24T15:53:30;40.03;;;7.80;;
20399;SDS011;10359;53.596;22.520;2022-08-24T15:56:26;27.05;;;6.97;;
20399;SDS011;10359;53.596;22.520;2022-08-24T15:59:26;34.20;;;7.25;;
20399;SDS011;10359;53.596;22.520;2022-08-24T16:02:20;29.13;;;6.93;;
20399;SDS011;10359;53.596;22.520;2022-08-24T16:05:18;37.75;;;7.30;;
20399;SDS011;10359;53.596;22.520;2022-08-24T16:08:23;31.00;;;7.30;;
20399;SDS011;10359;53.596;22.520;2022-08-24T16:11:18;38.80;;;7.40;;
20399;SDS011;10359;53.596;22.520;2022-08-24T16:14:14;38.10;;;7.60;;
20399;SDS011;10359;53.596;22.520;2022-08-24T16:17:21;30.65;;;6.82;;
20399;SDS011;10359;53.596;22.520;2022-08-24T16:20:28;30.65;;;7.65;;
20399;SDS011;10359;53.596;22.520;2022-08-24T16:23:21;35.50;;;7.05;;
20399;SDS011;10359;53.596;22.520;2022-08-24T16:26:17;33.50;;;7.60;;
20399;SDS011;10359;53.596;22.520;2022-08-24T16:32:50;27.83;;;7.32;;
20399;SDS011;10359;53.596;22.520;2022-08-24T16:35:42;28.52;;;6.90;;
20399;SDS011;10359;53.596;22.520;2022-08-24T16:38:32;35.40;;;7.35;;
20399;SDS011;10359;53.596;22.520;2022-08-24T16:41:22;23.90;;;6.72;;
20399;SDS011;10359;53.596;22.520;2022-08-24T16:44:13;25.20;;;6.95;;
20399;SDS011;10359;53.596;22.520;2022-08-24T16:47:02;29.27;;;7.55;;
20399;SDS011;10359;53.596;22.520;2022-08-24T16:49:53;30.42;;;7.10;;
20399;SDS011;10359;53.596;22.520;2022-08-24T16:52:44;34.75;;;7.57;;
20399;SDS011;10359;53.596;22.520;2022-08-24T16:55:33;24.02;;;6.70;;
20399;SDS011;10359;53.596;22.520;2022-08-24T16:58:24;31.00;;;7.10;;
20399;SDS011;10359;53.596;22.520;2022-08-24T17:01:23;28.23;;;7.13;;
20399;SDS011;10359;53.596;22.520;2022-08-24T17:04:12;24.52;;;6.85;;
20399;SDS011;10359;53.596;22.520;2022-08-24T17:07:03;32.17;;;8.02;;
20399;SDS011;10359;53.596;22.520;2022-08-24T17:09:57;24.25;;;7.07;;
20399;SDS011;10359;53.596;22.520;2022-08-24T17:12:49;28.02;;;7.30;;
20399;SDS011;10359;53.596;22.520;2022-08-24T17:15:38;27.38;;;7.07;;
20399;SDS011;10359;53.596;22.520;2022-08-24T17:18:28;25.63;;;7.13;;
20399;SDS011;10359;53.596;22.520;2022-08-24T17:21:17;29.55;;;7.22;;
20399;SDS011;10359;53.596;22.520;2022-08-24T17:24:07;33.75;;;7.55;;
20399;SDS011;10359;53.596;22.520;2022-08-24T17:26:59;34.40;;;7.35;;
20399;SDS011;10359;53.596;22.520;2022-08-24T17:29:49;27.60;;;6.95;;
20399;SDS011;10359;53.596;22.520;2022-08-24T17:32:39;35.17;;;8.43;;
20399;SDS011;10359;53.596;22.520;2022-08-24T17:35:28;38.20;;;8.27;;
20399;SDS011;10359;53.596;22.520;2022-08-24T17:38:17;27.10;;;7.57;;
20399;SDS011;10359;53.596;22.520;2022-08-24T17:41:07;27.48;;;7.10;;
20399;SDS011;10359;53.596;22.520;2022-08-24T17:44:02;26.80;;;7.20;;
20399;SDS011;10359;53.596;22.520;2022-08-24T17:46:52;34.03;;;8.23;;
20399;SDS011;10359;53.596;22.520;2022-08-24T17:49:43;36.05;;;7.82;;
20399;SDS011;10359;53.596;22.520;2022-08-24T17:52:33;30.25;;;7.85;;
20399;SDS011;10359;53.596;22.520;2022-08-24T17:55:22;25.90;;;8.00;;
20399;SDS011;10359;53.596;22.520;2022-08-24T17:58:11;31.90;;;7.07;;
20399;SDS011;10359;53.596;22.520;2022-08-24T18:01:04;28.48;;;7.85;;
20399;SDS011;10359;53.596;22.520;2022-08-24T18:03:54;40.25;;;7.95;;
20399;SDS011;10359;53.596;22.520;2022-08-24T18:06:43;32.28;;;7.32;;
20399;SDS011;10359;53.596;22.520;2022-08-24T18:09:34;29.80;;;8.27;;
20399;SDS011;10359;53.596;22.520;2022-08-24T18:12:25;29.65;;;7.70;;
20399;SDS011;10359;53.596;22.520;2022-08-24T18:15:15;31.05;;;7.72;;
20399;SDS011;10359;53.596;22.520;2022-08-24T18:18:06;33.80;;;8.77;;
20399;SDS011;10359;53.596;22.520;2022-08-24T18:20:56;33.25;;;8.00;;
20399;SDS011;10359;53.596;22.520;2022-08-24T18:23:46;26.30;;;8.07;;
20399;SDS011;10359;53.596;22.520;2022-08-24T18:26:36;39.30;;;9.30;;
20399;SDS011;10359;53.596;22.520;2022-08-24T18:29:33;31.27;;;7.20;;
20399;SDS011;10359;53.596;22.520;2022-08-24T18:32:23;29.63;;;7.20;;
20399;SDS011;10359;53.596;22.520;2022-08-24T18:35:19;26.90;;;7.40;;
20399;SDS011;10359;53.596;22.520;2022-08-24T18:38:09;28.93;;;7.53;;
20399;SDS011;10359;53.596;22.520;2022-08-24T18:41:00;27.97;;;7.87;;
20399;SDS011;10359;53.596;22.520;2022-08-24T18:43:49;28.97;;;7.00;;
20399;SDS011;10359;53.596;22.520;2022-08-24T18:46:40;33.25;;;7.57;;
20399;SDS011;10359;53.596;22.520;2022-08-24T18:49:29;31.73;;;7.80;;
20399;SDS011;10359;53.596;22.520;2022-08-24T18:52:20;27.27;;;7.60;;
20399;SDS011;10359;53.596;22.520;2022-08-24T18:55:10;30.00;;;8.20;;
20399;SDS011;10359;53.596;22.520;2022-08-24T18:57:59;32.83;;;8.50;;
20399;SDS011;10359;53.596;22.520;2022-08-24T19:00:49;28.03;;;7.67;;
20399;SDS011;10359;53.596;22.520;2022-08-24T19:03:40;39.03;;;8.53;;
20399;SDS011;10359;53.596;22.520;2022-08-24T19:06:30;37.57;;;8.43;;
20399;SDS011;10359;53.596;22.520;2022-08-24T19:09:22;31.97;;;8.87;;
20399;SDS011;10359;53.596;22.520;2022-08-24T19:12:18;32.43;;;8.13;;
20399;SDS011;10359;53.596;22.520;2022-08-24T19:15:08;29.93;;;8.83;;
20399;SDS011;10359;53.596;22.520;2022-08-24T19:18:19;29.60;;;8.30;;
20399;SDS011;10359;53.596;22.520;2022-08-24T19:21:10;30.40;;;7.50;;
20399;SDS011;10359;53.596;22.520;2022-08-24T19:24:00;28.20;;;7.77;;
20399;SDS011;10359;53.596;22.520;2022-08-24T19:26:51;29.50;;;8.27;;
20399;SDS011;10359;53.596;22.520;2022-08-24T19:29:47;33.17;;;7.97;;
20399;SDS011;10359;53.596;22.520;2022-08-24T19:32:43;30.47;;;8.23;;
20399;SDS011;10359;53.596;22.520;2022-08-24T19:35:33;30.63;;;7.97;;
20399;SDS011;10359;53.596;22.520;2022-08-24T19:38:23;30.67;;;8.93;;
20399;SDS011;10359;53.596;22.520;2022-08-24T19:41:13;38.23;;;8.60;;
20399;SDS011;10359;53.596;22.520;2022-08-24T19:44:07;31.73;;;8.97;;
20399;SDS011;10359;53.596;22.520;2022-08-24T19:47:15;26.43;;;7.87;;
20399;SDS011;10359;53.596;22.520;2022-08-24T19:50:05;30.47;;;8.37;;
20399;SDS011;10359;53.596;22.520;2022-08-24T19:52:55;27.33;;;7.70;;